Time;durP1;ratioP1;P1;durP2;ratioP2;P2;SDS_P1;SDS_P2;PMS_P1;PMS_P2;Temp;Humidity;BMP_temperature;BMP_pressure;BME280_temperature;BME280_humidity;BME280_pressure;Samples;Min_cycle;Max_cycle;Signal;HPM_P1;HPM_P2
2021/09/23 00:02:35;;;;;;;8.80;2.67;;;17.40;99.90;;;;;;4993364;28;20043;-84
2021/09/23 00:05:00;;;;;;;3.92;2.25;;;17.40;99.90;;;;;;4993139;28;20393;-84
2021/09/23 00:07:26;;;;;;;4.50;2.40;;;17.40;99.90;;;;;;4993225;28;20039;-85
2021/09/23 00:09:52;;;;;;;4.40;2.30;;;17.40;99.90;;;;;;4993447;28;20033;-86
2021/09/23 00:12:18;;;;;;;4.05;2.63;;;17.40;99.90;;;;;;4993516;28;20049;-80
2021/09/23 00:14:43;;;;;;;5.18;2.20;;;17.40;99.90;;;;;;4993677;28;20467;-79
2021/09/23 00:17:09;;;;;;;5.15;2.22;;;17.50;99.90;;;;;;4993187;28;20097;-86
2021/09/23 00:19:35;;;;;;;3.08;2.45;;;17.40;99.90;;;;;;4993020;28;20035;-75
2021/09/23 00:22:00;;;;;;;6.28;2.33;;;17.40;99.90;;;;;;4993725;28;20417;-88
2021/09/23 00:24:26;;;;;;;4.28;2.40;;;17.40;99.90;;;;;;4993664;28;20031;-75
2021/09/23 00:26:52;;;;;;;3.17;2.47;;;17.40;99.90;;;;;;4993359;28;20053;-75
2021/09/23 00:29:18;;;;;;;3.70;2.33;;;17.40;99.90;;;;;;4993434;28;20113;-78
2021/09/23 00:31:43;;;;;;;3.42;2.80;;;17.40;99.90;;;;;;4993572;28;20113;-74
2021/09/23 00:34:09;;;;;;;3.90;2.60;;;17.30;99.90;;;;;;4992977;28;20034;-74
2021/09/23 00:36:35;;;;;;;3.70;2.55;;;17.30;99.90;;;;;;4993496;28;20408;-82
2021/09/23 00:39:01;;;;;;;3.38;2.63;;;17.30;99.90;;;;;;4992997;28;20037;-78
2021/09/23 00:41:26;;;;;;;3.83;2.00;;;17.30;99.90;;;;;;4992826;28;20038;-75
2021/09/23 00:43:52;;;;;;;3.90;2.92;;;17.30;99.90;;;;;;4992712;28;20030;-75
2021/09/23 00:46:18;;;;;;;5.57;2.50;;;17.30;99.90;;;;;;4992563;28;20085;-72
2021/09/23 00:48:49;;;;;;;4.25;2.58;;;17.30;99.90;;;;;;4992729;28;20051;-84
2021/09/23 00:51:17;;;;;;;5.57;2.83;;;17.30;99.90;;;;;;4993953;28;20485;-72
2021/09/23 00:53:43;;;;;;;3.75;2.65;;;17.30;99.90;;;;;;4993960;28;20027;-84
2021/09/23 00:56:09;;;;;;;2.63;2.15;;;17.30;99.90;;;;;;4993275;28;20046;-85
2021/09/23 00:58:36;;;;;;;3.15;2.50;;;17.30;99.90;;;;;;4993644;28;20110;-73
2021/09/23 01:01:02;;;;;;;3.63;2.85;;;17.20;99.90;;;;;;4993391;28;20114;-80
2021/09/23 01:03:28;;;;;;;3.40;2.22;;;17.20;99.90;;;;;;4993607;28;20106;-73
2021/09/23 01:05:53;;;;;;;4.50;2.97;;;17.10;99.90;;;;;;4995544;28;20042;-83
2021/09/23 01:08:19;;;;;;;4.68;2.47;;;17.10;99.90;;;;;;4997783;28;20109;-74
2021/09/23 01:10:45;;;;;;;4.13;2.33;;;17.10;99.90;;;;;;4997322;28;20097;-87
2021/09/23 01:13:10;;;;;;;4.32;2.60;;;17.00;99.90;;;;;;4997248;28;20022;-74
2021/09/23 01:15:36;;;;;;;3.85;2.20;;;17.10;99.90;;;;;;4997151;28;20043;-73
2021/09/23 01:18:02;;;;;;;5.75;2.88;;;17.10;99.90;;;;;;4996770;28;20039;-73
2021/09/23 01:20:28;;;;;;;6.75;2.40;;;17.10;99.90;;;;;;4997191;28;20026;-91
2021/09/23 01:22:53;;;;;;;2.20;1.90;;;17.20;99.90;;;;;;4997079;28;20042;-72
2021/09/23 01:25:21;;;;;;;5.05;2.05;;;17.20;99.90;;;;;;4996629;28;20090;-74
2021/09/23 01:27:46;;;;;;;3.50;2.33;;;17.10;99.90;;;;;;4997624;28;20035;-83
2021/09/23 01:30:13;;;;;;;3.45;2.50;;;17.00;99.90;;;;;;4996919;28;20449;-82
2021/09/23 01:32:39;;;;;;;5.25;2.50;;;17.00;99.90;;;;;;4996837;28;20493;-73
2021/09/23 01:35:07;;;;;;;8.50;2.40;;;17.00;99.90;;;;;;4996912;28;20023;-74
2021/09/23 01:37:33;;;;;;;8.02;2.72;;;17.00;99.90;;;;;;4997343;28;20405;-80
2021/09/23 01:39:59;;;;;;;5.97;2.35;;;16.90;99.90;;;;;;4996979;28;20026;-75
2021/09/23 01:42:25;;;;;;;3.70;2.42;;;16.90;99.90;;;;;;4996406;28;20149;-88
2021/09/23 01:44:51;;;;;;;4.72;2.90;;;16.90;99.90;;;;;;4996177;28;20031;-91
2021/09/23 01:47:17;;;;;;;4.75;2.67;;;16.90;99.90;;;;;;4996687;28;20062;-87
2021/09/23 01:49:43;;;;;;;3.88;2.33;;;16.90;99.90;;;;;;4996515;28;20046;-88
2021/09/23 01:52:08;;;;;;;3.78;2.50;;;16.90;99.90;;;;;;4996127;28;20034;-89
2021/09/23 01:54:34;;;;;;;3.85;2.90;;;16.90;99.90;;;;;;4996178;28;20100;-80
2021/09/23 01:57:00;;;;;;;5.85;2.35;;;16.90;99.90;;;;;;4996037;28;20038;-87
2021/09/23 01:59:25;;;;;;;4.97;2.75;;;16.80;99.90;;;;;;4995827;28;20030;-75
2021/09/23 02:01:51;;;;;;;3.75;2.40;;;16.80;99.90;;;;;;4995283;28;20362;-74
2021/09/23 02:04:17;;;;;;;4.35;2.60;;;16.80;99.90;;;;;;4995968;28;20030;-74
2021/09/23 02:06:43;;;;;;;7.43;2.70;;;16.70;99.90;;;;;;4995934;28;20109;-74
2021/09/23 02:09:09;;;;;;;3.83;2.17;;;16.70;99.90;;;;;;4995586;28;20034;-75
2021/09/23 02:11:35;;;;;;;5.88;2.78;;;16.70;99.90;;;;;;4995936;28;20408;-84
2021/09/23 02:14:01;;;;;;;5.28;2.65;;;16.70;99.90;;;;;;4995952;28;20116;-74
2021/09/23 02:16:26;;;;;;;4.38;2.42;;;16.70;99.90;;;;;;4995569;28;20490;-73
2021/09/23 02:18:52;;;;;;;6.05;2.65;;;16.70;99.90;;;;;;4996278;28;20034;-75
2021/09/23 02:21:18;;;;;;;5.40;2.53;;;16.60;99.90;;;;;;4996529;28;20073;-79
2021/09/23 02:23:43;;;;;;;5.03;2.40;;;16.60;99.90;;;;;;4996274;28;20038;-89
2021/09/23 02:26:09;;;;;;;5.68;2.47;;;16.60;99.90;;;;;;4995762;28;20038;-89
2021/09/23 02:28:37;;;;;;;5.65;2.50;;;16.60;99.90;;;;;;4995950;28;20540;-74
2021/09/23 02:31:03;;;;;;;6.38;2.70;;;16.60;99.90;;;;;;4996243;28;20030;-74
2021/09/23 02:33:29;;;;;;;5.22;2.78;;;16.60;99.90;;;;;;4995425;28;20030;-74
2021/09/23 02:35:54;;;;;;;4.70;2.30;;;16.50;99.90;;;;;;4995098;28;20445;-76
2021/09/23 02:38:20;;;;;;;11.32;2.88;;;16.50;99.90;;;;;;4995878;28;20034;-85
2021/09/23 02:40:46;;;;;;;4.00;2.47;;;16.50;99.90;;;;;;4995453;28;20070;-88
2021/09/23 02:43:13;;;;;;;5.65;2.53;;;16.40;99.90;;;;;;4995676;28;20177;-74
2021/09/23 02:45:39;;;;;;;8.43;2.38;;;16.40;99.90;;;;;;4995972;28;20040;-72
2021/09/23 02:48:05;;;;;;;6.95;2.75;;;16.40;99.90;;;;;;4994169;28;20034;-73
2021/09/23 02:50:31;;;;;;;12.52;2.97;;;16.40;99.90;;;;;;4995818;28;20105;-84
2021/09/23 02:52:57;;;;;;;5.13;2.72;;;16.30;99.90;;;;;;4995599;28;20484;-78
2021/09/23 02:55:23;;;;;;;7.20;2.72;;;16.30;99.90;;;;;;4994929;28;20045;-88
2021/09/23 02:57:49;;;;;;;3.28;2.30;;;16.30;99.90;;;;;;4995174;28;20035;-72
2021/09/23 03:00:15;;;;;;;6.22;2.15;;;16.30;99.90;;;;;;4995285;28;20477;-73
2021/09/23 03:02:40;;;;;;;6.45;2.63;;;16.30;99.90;;;;;;4995677;28;20034;-72
2021/09/23 03:05:06;;;;;;;5.72;2.50;;;16.30;99.90;;;;;;4995127;28;20034;-85
2021/09/23 03:07:32;;;;;;;29.92;3.65;;;16.30;99.90;;;;;;4994929;28;20031;-87
2021/09/23 03:09:57;;;;;;;5.07;2.50;;;16.20;99.90;;;;;;4994949;28;20038;-74
2021/09/23 03:12:23;;;;;;;4.95;3.35;;;16.20;99.90;;;;;;4995210;28;20023;-74
2021/09/23 03:14:49;;;;;;;3.60;2.78;;;16.10;99.90;;;;;;4994857;28;20027;-85
2021/09/23 03:17:14;;;;;;;4.57;2.70;;;16.10;99.90;;;;;;4994840;28;20057;-86
2021/09/23 03:19:40;;;;;;;6.22;3.05;;;16.10;99.90;;;;;;4995234;28;20022;-73
2021/09/23 03:22:06;;;;;;;4.40;2.67;;;16.00;99.90;;;;;;4994859;28;20476;-82
2021/09/23 03:24:31;;;;;;;5.38;2.60;;;16.00;99.90;;;;;;4994420;28;20366;-74
2021/09/23 03:26:57;;;;;;;3.08;2.50;;;15.90;99.90;;;;;;4994280;28;20069;-72
2021/09/23 03:29:23;;;;;;;12.35;2.85;;;15.90;99.90;;;;;;4993937;28;20030;-73
2021/09/23 03:31:49;;;;;;;13.68;2.80;;;15.90;99.90;;;;;;4994998;28;20038;-74
2021/09/23 03:34:15;;;;;;;5.43;2.90;;;15.90;99.90;;;;;;4994772;28;20018;-80
2021/09/23 03:36:41;;;;;;;9.23;2.72;;;15.80;99.90;;;;;;4994608;28;20077;-74
2021/09/23 03:39:07;;;;;;;6.63;2.72;;;15.80;99.90;;;;;;4994274;28;20129;-74
2021/09/23 03:41:32;;;;;;;5.68;2.60;;;15.70;99.90;;;;;;4994351;28;20495;-73
2021/09/23 03:43:59;;;;;;;2.83;2.40;;;15.70;99.90;;;;;;4994160;28;20030;-85
2021/09/23 03:46:24;;;;;;;4.50;2.65;;;15.70;99.90;;;;;;4994626;28;20043;-73
2021/09/23 03:48:50;;;;;;;6.63;2.63;;;15.70;99.90;;;;;;4994175;28;20045;-82
2021/09/23 03:51:16;;;;;;;6.75;2.90;;;15.80;99.90;;;;;;4994323;28;20038;-84
2021/09/23 03:53:43;;;;;;;4.75;2.85;;;15.80;99.90;;;;;;4994060;28;20041;-82
2021/09/23 03:56:12;;;;;;;6.30;2.85;;;15.70;99.90;;;;;;4994121;28;20507;-84
2021/09/23 03:58:39;;;;;;;5.95;2.95;;;15.70;99.90;;;;;;4994275;28;20038;-74
2021/09/23 04:01:05;;;;;;;3.65;2.90;;;15.60;99.90;;;;;;4994664;28;20030;-73
2021/09/23 04:03:31;;;;;;;12.10;3.40;;;15.60;99.90;;;;;;4994654;28;20038;-84
2021/09/23 04:05:57;;;;;;;4.80;2.53;;;15.60;99.90;;;;;;4994361;28;20113;-75
2021/09/23 04:08:23;;;;;;;5.13;2.97;;;15.60;99.90;;;;;;4994236;28;20473;-77
2021/09/23 04:10:48;;;;;;;5.68;2.88;;;15.50;99.90;;;;;;4994307;28;20042;-85
2021/09/23 04:13:14;;;;;;;5.82;2.60;;;15.50;99.90;;;;;;4994180;28;20041;-85
2021/09/23 04:15:42;;;;;;;9.85;3.20;;;15.50;99.90;;;;;;4993966;28;20061;-82
2021/09/23 04:18:08;;;;;;;5.45;3.13;;;15.60;99.90;;;;;;4993915;28;20039;-73
2021/09/23 04:20:34;;;;;;;5.45;2.88;;;15.50;99.90;;;;;;4993694;28;20054;-80
2021/09/23 04:23:00;;;;;;;4.13;2.60;;;15.50;99.90;;;;;;4993494;28;20484;-74
2021/09/23 04:25:25;;;;;;;10.75;2.90;;;15.50;99.90;;;;;;4994119;28;20062;-74
2021/09/23 04:27:51;;;;;;;5.43;2.63;;;15.50;99.90;;;;;;4993636;28;20030;-81
2021/09/23 04:30:17;;;;;;;7.10;2.97;;;15.40;99.90;;;;;;4993937;28;20042;-73
2021/09/23 04:32:43;;;;;;;7.28;3.00;;;15.40;99.90;;;;;;4994207;28;20492;-82
2021/09/23 04:35:09;;;;;;;6.70;2.88;;;15.40;99.90;;;;;;4975941;28;20112;-73
2021/09/23 04:37:35;;;;;;;8.55;3.10;;;15.50;99.90;;;;;;4993634;28;20481;-74
2021/09/23 04:40:01;;;;;;;10.88;3.70;;;15.40;99.90;;;;;;4994293;28;20388;-75
2021/09/23 04:42:26;;;;;;;7.90;2.83;;;15.40;99.90;;;;;;4997468;28;20081;-73
2021/09/23 04:44:52;;;;;;;3.85;2.28;;;15.30;99.90;;;;;;4997953;28;20026;-84
2021/09/23 04:47:17;;;;;;;5.95;2.50;;;15.30;99.90;;;;;;4997328;28;20118;-73
2021/09/23 04:49:44;;;;;;;5.72;2.67;;;15.20;99.90;;;;;;4997275;28;20038;-73
2021/09/23 04:52:10;;;;;;;6.65;2.88;;;15.30;99.90;;;;;;4997196;28;20027;-72
2021/09/23 04:54:36;;;;;;;7.63;3.25;;;15.30;99.90;;;;;;4997409;28;20034;-73
2021/09/23 04:57:02;;;;;;;5.28;2.88;;;15.30;99.90;;;;;;4997953;28;20448;-72
2021/09/23 04:59:29;;;;;;;4.85;2.70;;;15.30;99.90;;;;;;4997436;28;20428;-83
2021/09/23 05:01:55;;;;;;;14.75;3.10;;;15.30;99.90;;;;;;4997370;28;20034;-83
2021/09/23 05:04:20;;;;;;;9.48;3.25;;;15.30;99.90;;;;;;4997717;28;20108;-72
2021/09/23 05:06:46;;;;;;;6.75;3.30;;;15.30;99.90;;;;;;4997367;28;20030;-77
2021/09/23 05:09:12;;;;;;;23.33;5.03;;;15.30;99.90;;;;;;4997770;28;20049;-73
2021/09/23 05:11:37;;;;;;;5.65;3.22;;;15.30;99.90;;;;;;4997029;28;20599;-73
2021/09/23 05:14:03;;;;;;;6.47;3.22;;;15.30;99.90;;;;;;4997074;28;20030;-73
2021/09/23 05:16:29;;;;;;;8.10;3.33;;;15.30;99.90;;;;;;4996878;28;20493;-73
2021/09/23 05:18:55;;;;;;;7.07;3.10;;;15.40;99.90;;;;;;4997218;28;20034;-87
2021/09/23 05:21:20;;;;;;;11.57;3.33;;;15.70;99.90;;;;;;4996886;28;20026;-72
2021/09/23 05:23:46;;;;;;;9.40;3.20;;;16.10;99.90;;;;;;4996786;28;20038;-73
2021/09/23 05:26:12;;;;;;;5.47;2.83;;;16.60;99.90;;;;;;4997056;28;20121;-83
2021/09/23 05:28:38;;;;;;;8.23;2.92;;;17.20;99.90;;;;;;4995409;28;20145;-74
2021/09/23 05:31:04;;;;;;;13.18;2.60;;;17.70;99.90;;;;;;4996915;28;20026;-73
2021/09/23 05:33:30;;;;;;;7.40;2.45;;;18.20;99.90;;;;;;4996496;28;20113;-73
2021/09/23 05:35:56;;;;;;;4.82;2.40;;;18.80;99.90;;;;;;4996253;28;20125;-91
2021/09/23 05:38:23;;;;;;;4.60;2.67;;;19.40;99.70;;;;;;4997694;28;20030;-83
2021/09/23 05:40:50;;;;;;;5.70;2.72;;;19.90;98.90;;;;;;4997137;28;20034;-87
2021/09/23 05:43:15;;;;;;;4.40;2.55;;;20.30;98.20;;;;;;4996630;28;20133;-90
2021/09/23 05:45:41;;;;;;;5.47;2.17;;;20.70;97.60;;;;;;4996173;28;20496;-73
2021/09/23 05:48:06;;;;;;;9.05;2.28;;;21.00;97.00;;;;;;4996203;28;20400;-74
2021/09/23 05:50:32;;;;;;;5.35;2.05;;;21.40;96.30;;;;;;4996467;28;20477;-85
2021/09/23 05:52:58;;;;;;;4.68;2.47;;;21.50;95.50;;;;;;4995058;28;20496;-75
2021/09/23 05:55:24;;;;;;;6.43;2.75;;;21.60;95.30;;;;;;4995871;28;20037;-78
2021/09/23 05:57:50;;;;;;;4.30;2.30;;;21.60;95.80;;;;;;4996591;28;20042;-86
2021/09/23 06:00:17;;;;;;;5.80;2.25;;;21.70;95.00;;;;;;4996071;28;20034;-85
2021/09/23 06:02:44;;;;;;;9.55;3.05;;;22.00;94.50;;;;;;4995487;28;20042;-84
2021/09/23 06:05:12;;;;;;;9.65;2.50;;;22.30;94.90;;;;;;4995512;28;20385;-86
2021/09/23 06:07:38;;;;;;;5.70;2.35;;;22.80;94.80;;;;;;4997232;28;20030;-75
2021/09/23 06:10:05;;;;;;;3.90;2.00;;;23.30;93.20;;;;;;4995763;28;20033;-72
2021/09/23 06:12:31;;;;;;;6.13;2.10;;;23.40;93.00;;;;;;4995553;28;20038;-82
2021/09/23 06:14:57;;;;;;;4.30;2.10;;;23.30;92.50;;;;;;4995427;28;20038;-85
2021/09/23 06:17:23;;;;;;;4.65;2.10;;;23.40;92.60;;;;;;4995348;28;20042;-88
2021/09/23 06:19:48;;;;;;;11.68;2.35;;;23.60;92.30;;;;;;4996047;28;20449;-83
2021/09/23 06:22:14;;;;;;;3.95;1.80;;;24.10;91.50;;;;;;4996173;28;20038;-87
2021/09/23 06:24:40;;;;;;;8.88;2.65;;;24.50;91.40;;;;;;4995401;28;20027;-83
2021/09/23 06:34:53;;;;;;;9.77;2.45;;;25.60;90.00;;;;;;4944585;28;20568;-89
2021/09/23 06:37:41;;;;;;;6.85;1.85;;;26.10;88.60;;;;;;4995430;28;20130;-89
2021/09/23 06:54:28;;;;;;;5.78;1.90;;;26.90;82.60;;;;;;4928704;29;20059;-88
2021/09/23 06:56:57;;;;;;;4.90;1.75;;;26.90;82.80;;;;;;4945953;28;20108;-78
2021/09/23 06:59:23;;;;;;;2.80;1.65;;;27.10;82.20;;;;;;4995298;28;20085;-89
2021/09/23 07:01:51;;;;;;;6.13;2.10;;;27.40;81.50;;;;;;4994935;28;20035;-74
2021/09/23 07:04:17;;;;;;;4.40;2.00;;;27.80;80.00;;;;;;4994724;28;20045;-88
2021/09/23 07:06:45;;;;;;;4.97;2.00;;;27.90;79.90;;;;;;4995737;28;20031;-88
2021/09/23 07:09:20;;;;;;;7.82;2.05;;;28.00;79.70;;;;;;4995995;28;20117;-89
2021/09/23 07:11:58;;;;;;;3.72;1.83;;;28.50;77.90;;;;;;4995362;28;20042;-81
2021/09/23 07:17:58;;;;;;;4.47;2.20;;;29.40;76.70;;;;;;4987733;28;20077;-88
2021/09/23 07:27:38;;;;;;;6.25;1.95;;;30.40;73.70;;;;;;4885360;29;20123;-77
2021/09/23 07:30:08;;;;;;;9.90;2.17;;;30.90;69.90;;;;;;4897707;29;20123;-77
2021/09/23 07:32:33;;;;;;;7.65;1.83;;;31.10;69.80;;;;;;4896973;29;20124;-89
2021/09/23 07:34:59;;;;;;;6.90;1.70;;;31.40;69.30;;;;;;4953487;28;20125;-84
2021/09/23 07:37:25;;;;;;;4.75;1.88;;;32.00;68.40;;;;;;4994637;28;20125;-77
2021/09/23 07:39:54;;;;;;;4.30;1.75;;;32.70;66.20;;;;;;4994254;28;20507;-88
2021/09/23 07:42:19;;;;;;;7.78;1.88;;;32.80;66.20;;;;;;4994952;28;20391;-90
2021/09/23 07:51:04;;;;;;;4.47;1.60;;;32.60;64.60;;;;;;4994778;28;20049;-76
2021/09/23 07:53:32;;;;;;;7.68;2.53;;;32.40;64.60;;;;;;4994407;28;20077;-78
2021/09/23 08:02:25;;;;;;;7.25;1.73;;;33.10;63.10;;;;;;4993618;28;20029;-86
2021/09/23 08:04:50;;;;;;;5.97;1.65;;;34.00;61.80;;;;;;4994247;28;20397;-86
2021/09/23 08:07:17;;;;;;;7.43;1.77;;;34.40;60.60;;;;;;4994634;28;20384;-86
2021/09/23 08:09:45;;;;;;;10.13;1.70;;;34.70;60.20;;;;;;4994229;28;20033;-87
2021/09/23 08:12:11;;;;;;;14.63;1.85;;;35.30;59.20;;;;;;4994452;28;20042;-83
2021/09/23 08:14:37;;;;;;;9.48;1.63;;;35.70;57.90;;;;;;4994544;28;20137;-85
2021/09/23 08:17:04;;;;;;;3.90;1.45;;;35.50;57.90;;;;;;4993741;28;20386;-86
2021/09/23 08:20:04;;;;;;;5.80;1.90;;;35.90;57.90;;;;;;4994366;28;20030;-86
2021/09/23 08:22:29;;;;;;;20.33;2.50;;;36.40;56.70;;;;;;4994376;28;20034;-88
2021/09/23 08:24:55;;;;;;;10.13;1.60;;;36.80;56.10;;;;;;4994030;28;20481;-86
2021/09/23 08:27:21;;;;;;;6.35;2.00;;;36.80;55.40;;;;;;4993796;28;20485;-87
2021/09/23 08:29:47;;;;;;;11.27;1.70;;;36.80;55.50;;;;;;4994350;28;20041;-85
2021/09/23 08:32:17;;;;;;;3.22;1.60;;;37.10;55.00;;;;;;4994421;28;20042;-87
2021/09/23 08:34:44;;;;;;;6.10;1.83;;;37.00;55.20;;;;;;4994276;28;20382;-88
2021/09/23 08:37:10;;;;;;;7.35;1.60;;;36.60;55.30;;;;;;4994420;28;20129;-90
2021/09/23 08:39:41;;;;;;;7.95;1.63;;;35.60;55.90;;;;;;4994776;28;20493;-84
2021/09/23 08:42:07;;;;;;;10.35;1.98;;;34.20;57.40;;;;;;4994206;28;20496;-88
2021/09/23 08:44:35;;;;;;;6.40;1.60;;;33.00;58.30;;;;;;4993931;28;20039;-88
2021/09/23 08:47:01;;;;;;;5.70;1.38;;;32.00;59.50;;;;;;4994080;28;20042;-87
2021/09/23 08:49:27;;;;;;;5.25;1.80;;;31.50;60.60;;;;;;4993300;28;20043;-77
2021/09/23 08:52:12;;;;;;;4.78;1.50;;;31.00;61.60;;;;;;4994031;28;20034;-77
2021/09/23 08:54:59;;;;;;;4.22;1.63;;;30.50;63.00;;;;;;4994363;28;20389;-77
2021/09/23 09:04:11;;;;;;;7.35;1.73;;;29.80;66.10;;;;;;4981970;28;20134;-79
2021/09/23 09:20:26;;;;;;;4.97;2.47;;;28.80;73.50;;;;;;4993719;28;20041;-79
2021/09/23 09:23:17;;;;;;;10.50;2.85;;;29.00;73.60;;;;;;4993431;28;20393;-81
2021/09/23 09:25:43;;;;;;;;;;;29.20;72.50;;;;;;4989968;28;20037;-79
2021/09/23 09:28:12;;;;;;;9.88;2.90;;;29.30;72.30;;;;;;4996901;28;20008;-78
2021/09/23 09:30:40;;;;;;;9.95;2.75;;;29.30;73.30;;;;;;4996672;28;20034;-84
2021/09/23 09:33:06;;;;;;;8.93;3.05;;;29.50;73.50;;;;;;4996541;28;20499;-81
2021/09/23 09:43:14;;;;;;;;;;;;;;;;;;;;;
2021/09/23 09:49:48;;;;;;;;;;;;;;;;;;;;;
2021/09/23 09:53:01;;;;;;;9.00;3.10;;;28.30;75.90;;;;;;4903689;29;20028;-84
2021/09/23 10:02:22;;;;;;;8.63;2.42;;;28.50;77.90;;;;;;4995830;28;20905;-78
2021/09/23 10:05:09;;;;;;;7.50;2.50;;;28.40;78.50;;;;;;4994824;28;20070;-79
2021/09/23 10:18:12;;;;;;;5.15;2.78;;;28.20;81.20;;;;;;4996393;28;20048;-86
2021/09/23 10:48:04;;;;;;;;;;;;;;;;;;;;;
2021/09/23 11:08:51;;;;;;;5.72;2.88;;;27.30;80.90;;;;;;4884946;29;20082;-90
2021/09/23 12:55:56;;;;;;;5.35;2.72;;;23.40;87.40;;;;;;4786822;29;20092;-93
2021/09/23 12:59:29;;;;;;;;;;;;;;;;;;;;;
2021/09/23 14:00:39;;;;;;;6.00;2.28;;;22.40;95.60;;;;;;5000639;28;20125;-78
2021/09/23 14:04:16;;;;;;;;;;;;;;;;;;;;;
2021/09/23 14:10:39;;;;;;;6.07;2.20;;;22.40;96.50;;;;;;4995621;28;20037;-78
2021/09/23 14:13:39;;;;;;;5.68;2.25;;;22.40;96.60;;;;;;4964551;28;20045;-79
2021/09/23 14:30:27;;;;;;;7.60;2.23;;;22.30;97.70;;;;;;4946882;29;20048;-79
2021/09/23 14:39:32;;;;;;;5.63;2.90;;;22.30;97.90;;;;;;4962117;29;20062;-94
2021/09/23 14:42:28;;;;;;;12.80;2.60;;;22.30;98.20;;;;;;4962881;29;20092;-79
2021/09/23 14:48:51;;;;;;;10.00;2.92;;;22.20;98.50;;;;;;5001464;28;20495;-90
2021/09/23 14:51:47;;;;;;;;;;;;;;;;;;;;;
2021/09/23 15:00:59;;;;;;;4.32;2.33;;;22.20;99.00;;;;;;4936363;28;20058;-91
2021/09/23 15:03:42;;;;;;;5.55;2.10;;;22.20;98.80;;;;;;4996389;28;20030;-92
2021/09/23 15:13:55;;;;;;;;;;;;;;;;;;;;;
2021/09/23 15:47:46;;;;;;;7.47;3.00;;;21.60;99.90;;;;;;4805787;29;20531;-81
2021/09/23 16:15:22;;;;;;;6.13;2.70;;;21.10;99.90;;;;;;4848294;29;20088;-80
2021/09/23 16:55:50;;;;;;;4.70;3.07;;;20.40;99.90;;;;;;4864330;29;20044;-81
2021/09/23 16:58:26;;;;;;;3.53;2.80;;;20.40;99.90;;;;;;4956921;28;20178;-79
2021/09/23 17:08:49;;;;;;;8.60;2.80;;;20.30;99.90;;;;;;4997854;28;20105;-80
2021/09/23 17:11:36;;;;;;;6.55;3.15;;;20.30;99.90;;;;;;4997188;28;20073;-91
2021/09/23 17:14:05;;;;;;;9.98;3.40;;;20.20;99.90;;;;;;4997223;28;20034;-88
2021/09/23 17:40:02;;;;;;;7.72;4.03;;;20.00;99.90;;;;;;4871627;29;20598;-74
2021/09/23 17:43:15;;;;;;;10.80;4.38;;;20.00;99.90;;;;;;4960328;28;20387;-73
2021/09/23 17:45:52;;;;;;;11.32;5.28;;;19.90;99.90;;;;;;4956853;28;20042;-91
2021/09/23 17:48:44;;;;;;;9.77;4.25;;;19.90;99.90;;;;;;4956291;28;20116;-76
2021/09/23 18:34:00;;;;;;;8.50;5.07;;;18.90;99.90;;;;;;4835362;29;20401;-80
2021/09/23 18:41:29;;;;;;;17.23;5.18;;;18.70;99.90;;;;;;4842743;29;20093;-74
2021/09/23 18:44:01;;;;;;;20.52;5.80;;;18.50;99.90;;;;;;4836693;29;20041;-74
2021/09/23 18:46:53;;;;;;;17.40;5.28;;;18.40;99.90;;;;;;4923442;28;20039;-85
2021/09/23 18:53:29;;;;;;;;;;;;;;;;;;;;;
2021/09/23 18:56:22;;;;;;;10.68;4.90;;;18.10;99.90;;;;;;4975693;28;20499;-75
2021/09/23 19:22:30;;;;;;;13.15;5.25;;;17.70;99.90;;;;;;4902775;29;20079;-78
2021/09/23 19:39:09;;;;;;;11.88;5.05;;;17.40;99.90;;;;;;4935061;28;20224;-83
2021/09/23 20:47:55;;;;;;;10.32;5.40;;;16.60;99.90;;;;;;4933911;29;20036;-86
2021/09/23 20:51:00;;;;;;;15.75;5.60;;;16.60;99.90;;;;;;4951292;28;20456;-79
2021/09/23 21:01:00;;;;;;;6.20;4.68;;;16.50;99.90;;;;;;4935074;28;20079;-91
2021/09/23 21:03:55;;;;;;;26.20;5.13;;;16.40;99.90;;;;;;4896421;29;20043;-91
2021/09/23 21:06:24;;;;;;;13.68;4.80;;;16.30;99.90;;;;;;4985751;28;20065;-90
2021/09/23 21:08:52;;;;;;;11.05;5.60;;;16.30;99.90;;;;;;4993723;28;20035;-92
2021/09/23 21:18:12;;;;;;;8.27;5.33;;;16.40;99.90;;;;;;4968284;28;20089;-90
2021/09/23 21:24:24;;;;;;;8.68;4.38;;;16.40;99.90;;;;;;4976550;28;20046;-74
2021/09/23 21:27:33;;;;;;;12.55;5.00;;;16.50;99.90;;;;;;4976166;28;20378;-86
2021/09/23 21:30:24;;;;;;;14.23;6.38;;;16.50;99.90;;;;;;4918071;29;20074;-74
2021/09/23 21:33:26;;;;;;;8.20;5.85;;;16.50;99.90;;;;;;4918714;29;20107;-89
2021/09/23 21:36:44;;;;;;;10.23;5.45;;;16.60;99.90;;;;;;4918514;29;20044;-91
2021/09/23 21:39:19;;;;;;;9.25;4.78;;;16.50;99.90;;;;;;4890099;29;20063;-76
2021/09/23 21:48:23;;;;;;;12.10;5.03;;;16.50;99.90;;;;;;4861066;29;20531;-77
2021/09/23 21:54:46;;;;;;;8.70;4.90;;;16.40;99.90;;;;;;4897995;29;20056;-75
2021/09/23 22:00:50;;;;;;;9.35;5.35;;;16.40;99.90;;;;;;4879343;29;20052;-83
2021/09/23 22:03:27;;;;;;;7.83;4.83;;;16.30;99.90;;;;;;4878626;29;20190;-91
2021/09/23 22:12:37;;;;;;;7.03;4.47;;;16.40;99.90;;;;;;4879510;29;20143;-90
2021/09/23 22:25:22;;;;;;;6.93;4.53;;;16.40;99.90;;;;;;4864839;28;20089;-76
2021/09/23 22:27:57;;;;;;;11.63;5.38;;;16.50;99.90;;;;;;4955441;29;20404;-76
2021/09/23 22:30:23;;;;;;;10.85;5.07;;;16.50;99.90;;;;;;4964884;28;20030;-88
2021/09/23 22:32:55;;;;;;;9.68;5.63;;;16.50;99.90;;;;;;4995674;28;20034;-76
2021/09/23 22:35:56;;;;;;;9.93;4.88;;;16.60;99.90;;;;;;4995511;28;20034;-78
2021/09/23 22:38:37;;;;;;;7.95;4.82;;;16.70;99.90;;;;;;4992380;28;20455;-74
2021/09/23 22:41:03;;;;;;;11.00;4.55;;;16.70;99.90;;;;;;4995726;28;20039;-76
2021/09/23 22:43:59;;;;;;;13.00;4.55;;;16.70;99.90;;;;;;4995411;28;20042;-74
2021/09/23 22:47:08;;;;;;;;;;;;;;;;;;;;;
2021/09/23 22:50:23;;;;;;;11.88;4.57;;;16.80;99.90;;;;;;4995570;28;20032;-75
2021/09/23 22:52:42;;;;;;;11.90;4.70;;;16.80;99.90;;;;;;4991883;28;20457;-88
2021/09/23 22:55:21;;;;;;;6.82;4.63;;;16.80;99.90;;;;;;4995657;28;20086;-76
2021/09/23 22:57:47;;;;;;;14.98;5.82;;;16.80;99.90;;;;;;4995215;28;20530;-74
2021/09/23 23:00:14;;;;;;;6.13;4.32;;;16.80;99.90;;;;;;4995896;28;20035;-75
2021/09/23 23:02:57;;;;;;;10.50;5.28;;;16.80;99.90;;;;;;4995796;28;20113;-75
2021/09/23 23:06:05;;;;;;;;;;;;;;;;;;;;;
2021/09/23 23:08:50;;;;;;;11.77;4.43;;;16.80;99.90;;;;;;4995496;28;20034;-74
2021/09/23 23:11:22;;;;;;;10.85;4.78;;;16.80;99.90;;;;;;4994878;28;20037;-87
2021/09/23 23:14:25;;;;;;;;;;;;;;;;;;;;;
2021/09/23 23:20:59;;;;;;;;;;;;;;;;;;;;;
2021/09/23 23:26:48;;;;;;;6.75;4.57;;;16.80;99.90;;;;;;4995250;28;20045;-88
2021/09/23 23:30:01;;;;;;;9.15;4.97;;;16.80;99.90;;;;;;4994462;28;20038;-75
2021/09/23 23:32:36;;;;;;;6.03;3.97;;;16.80;99.90;;;;;;4991416;28;20046;-77
2021/09/23 23:41:17;;;;;;;11.93;4.22;;;16.90;99.90;;;;;;4974136;28;20034;-73
